Terminal Aerodrome Forecast
Issued by NWS Twin Cities, MN

Home | Current Version | Previous Version | Graphics & Text | Print | Product List | Glossary On
Versions: 1 2 3 4 5 6 7 8 9 10 11 12 13 14 15
000
FTUS43 KMPX 280520
TAFSTC
TAF
KSTC 280520Z 2806/2906 21004KT P6SM VCSH BKN100
     FM281000 28008KT P6SM SCT100
     FM281400 30013KT P6SM SCT050
     FM281700 30015G24KT P6SM BKN050 PROB30 2822/2903 -SHRA
     FM290300 30008KT P6SM BKN040=

USA.gov is the U.S. government's official web portal to all federal, state and local government web resources and services.